Time;durP1;ratioP1;P1;durP2;ratioP2;P2;SDS_P1;SDS_P2;PMS_P1;PMS_P2;Temp;Humidity;BMP_temperature;BMP_pressure;BME280_temperature;BME280_humidity;BME280_pressure;Samples;Min_cycle;Max_cycle;Signal;HPM_P1;HPM_P2
2020/12/09 00:00:09;;;;;;;6.68;1.17;;;23.80;80.20;;;;;;5011070;28;20539;-75
2020/12/09 00:02:37;;;;;;;11.45;1.67;;;24.00;78.30;;;;;;5008369;28;20022;-76
2020/12/09 00:05:07;;;;;;;7.32;1.08;;;24.00;77.20;;;;;;5009675;28;20499;-77
2020/12/09 00:07:36;;;;;;;4.35;1.00;;;24.00;77.90;;;;;;5010749;28;20033;-78
2020/12/09 00:10:05;;;;;;;9.25;2.55;;;23.60;76.50;;;;;;5017466;23;20049;-77
2020/12/09 00:12:33;;;;;;;4.10;0.77;;;24.10;77.40;;;;;;5039361;28;20025;-80
2020/12/09 00:15:01;;;;;;;6.93;1.00;;;24.40;76.20;;;;;;5040534;28;20121;-80
2020/12/09 00:17:31;;;;;;;8.15;1.25;;;24.30;78.30;;;;;;5053889;28;20076;-81
2020/12/09 00:19:59;;;;;;;4.70;0.60;;;24.40;75.00;;;;;;5052505;28;20029;-81
2020/12/09 00:22:26;;;;;;;6.90;0.95;;;24.50;76.20;;;;;;5052645;28;20032;-81
2020/12/09 00:24:54;;;;;;;6.88;1.00;;;24.80;80.40;;;;;;5061660;28;20486;-81
2020/12/09 00:27:21;;;;;;;6.22;1.02;;;25.00;77.70;;;;;;5055256;28;20035;-82
2020/12/09 00:29:48;;;;;;;8.32;1.35;;;25.00;77.00;;;;;;5024811;28;20132;-82
2020/12/09 00:32:16;;;;;;;3.55;1.08;;;25.00;75.10;;;;;;5017490;28;20116;-82
2020/12/09 00:34:43;;;;;;;3.47;1.00;;;25.10;76.50;;;;;;5059790;28;20051;-82
2020/12/09 00:37:10;;;;;;;4.35;1.20;;;25.50;79.10;;;;;;5050056;28;20036;-81
2020/12/09 00:39:38;;;;;;;6.43;1.08;;;25.50;79.70;;;;;;5067662;28;20028;-81
2020/12/09 00:42:05;;;;;;;3.35;0.70;;;25.30;78.90;;;;;;5068016;28;20035;-77
2020/12/09 00:44:32;;;;;;;10.68;1.58;;;25.20;78.40;;;;;;5090765;22;20048;-78
2020/12/09 00:47:00;;;;;;;13.43;1.63;;;25.70;78.10;;;;;;5081485;28;20020;-78
2020/12/09 00:49:28;;;;;;;10.15;1.50;;;25.50;76.60;;;;;;5089976;28;20081;-78
2020/12/09 00:51:57;;;;;;;5.53;1.88;;;25.40;78.90;;;;;;5076569;28;20020;-78
2020/12/09 00:54:25;;;;;;;9.73;1.63;;;25.70;77.10;;;;;;5073581;28;20543;-78
2020/12/09 00:56:52;;;;;;;4.13;0.95;;;26.10;79.10;;;;;;5076372;28;20058;-78
2020/12/09 00:59:19;;;;;;;5.20;1.20;;;26.40;75.40;;;;;;5091009;28;20024;-78
2020/12/09 01:01:46;;;;;;;8.65;1.35;;;26.70;76.40;;;;;;5095001;28;20016;-78
2020/12/09 01:04:14;;;;;;;7.20;1.27;;;26.30;75.60;;;;;;5079234;28;20024;-78
2020/12/09 01:06:41;;;;;;;4.07;0.95;;;26.30;77.20;;;;;;5070342;28;20386;-80
2020/12/09 01:09:08;;;;;;;9.73;2.05;;;26.10;75.80;;;;;;5086700;28;20392;-80
2020/12/09 01:11:36;;;;;;;4.85;0.93;;;26.00;78.20;;;;;;5094890;28;20546;-80
2020/12/09 01:14:03;;;;;;;12.80;1.77;;;26.30;78.20;;;;;;5091329;28;20168;-80
2020/12/09 01:16:30;;;;;;;6.20;1.08;;;26.20;75.50;;;;;;5094220;28;20039;-80
2020/12/09 01:18:58;;;;;;;4.97;1.00;;;26.00;76.50;;;;;;5090473;28;20396;-80
2020/12/09 01:21:32;;;;;;;7.55;1.10;;;26.00;79.30;;;;;;5073374;28;20047;-80
2020/12/09 01:23:59;;;;;;;7.45;1.00;;;26.00;77.10;;;;;;5062260;28;20146;-80
2020/12/09 01:26:27;;;;;;;4.45;0.85;;;26.00;78.60;;;;;;5076428;28;20389;-79
2020/12/09 01:28:54;;;;;;;9.52;1.20;;;26.20;77.10;;;;;;5090158;28;20067;-81
2020/12/09 01:31:23;;;;;;;9.05;1.83;;;26.00;75.00;;;;;;5076314;28;20098;-80
2020/12/09 01:33:50;;;;;;;5.22;1.42;;;26.20;77.80;;;;;;5055376;28;20024;-80
2020/12/09 01:36:24;;;;;;;7.03;1.30;;;26.30;75.30;;;;;;5054554;28;20466;-80
2020/12/09 01:38:52;;;;;;;7.35;1.20;;;26.00;76.00;;;;;;5054336;28;20103;-81
2020/12/09 01:41:20;;;;;;;6.95;1.40;;;26.20;76.00;;;;;;5053030;28;20043;-80
2020/12/09 01:43:49;;;;;;;8.82;1.50;;;26.40;76.30;;;;;;5074595;23;20060;-80
2020/12/09 01:48:46;;;;;;;6.88;1.15;;;26.30;76.80;;;;;;5058588;22;20044;-78
2020/12/09 01:51:18;;;;;;;8.10;1.48;;;26.50;76.60;;;;;;5058408;22;20053;-80
2020/12/09 01:53:45;;;;;;;5.57;1.35;;;26.30;75.60;;;;;;5069611;28;20124;-79
2020/12/09 01:56:13;;;;;;;8.52;1.10;;;26.60;79.90;;;;;;5055583;28;20485;-80
2020/12/09 01:58:40;;;;;;;5.68;1.35;;;26.80;76.30;;;;;;5056752;28;20024;-80
2020/12/09 02:01:07;;;;;;;6.95;1.55;;;27.00;75.00;;;;;;5062783;23;20624;-81
2020/12/09 02:03:35;;;;;;;5.38;0.90;;;26.80;75.70;;;;;;5067431;28;20104;-80
2020/12/09 02:06:04;;;;;;;13.65;1.55;;;27.30;76.70;;;;;;5072762;28;20321;-81
2020/12/09 02:08:31;;;;;;;6.18;1.65;;;27.50;75.10;;;;;;5070790;28;20081;-80
2020/12/09 02:11:00;;;;;;;5.55;1.27;;;27.40;74.30;;;;;;5073162;28;20120;-81
2020/12/09 02:13:29;;;;;;;7.80;1.08;;;27.30;73.70;;;;;;5054102;28;20056;-81
2020/12/09 02:16:00;;;;;;;8.85;1.20;;;27.10;72.90;;;;;;5073280;28;20040;-80
2020/12/09 02:18:28;;;;;;;5.18;0.93;;;26.80;72.20;;;;;;5078114;22;20056;-80
2020/12/09 02:20:55;;;;;;;7.10;1.63;;;26.80;72.70;;;;;;5054967;28;20146;-80
2020/12/09 02:23:23;;;;;;;5.85;1.27;;;26.30;74.80;;;;;;5054474;28;20263;-80
2020/12/09 02:25:50;;;;;;;8.07;1.23;;;26.90;77.70;;;;;;5073047;28;20614;-80
2020/12/09 02:28:17;;;;;;;7.25;1.30;;;26.80;74.60;;;;;;5070602;28;20453;-81
2020/12/09 02:30:44;;;;;;;9.57;1.33;;;26.80;75.40;;;;;;5072834;28;20050;-79
2020/12/09 02:33:12;;;;;;;7.05;0.93;;;26.90;74.90;;;;;;5068002;28;20089;-80
2020/12/09 02:35:39;;;;;;;7.05;1.13;;;26.60;72.50;;;;;;5072896;28;20047;-79
2020/12/09 02:38:06;;;;;;;8.30;1.40;;;26.40;76.50;;;;;;5053104;28;20024;-80
2020/12/09 02:40:34;;;;;;;5.13;0.90;;;26.60;75.30;;;;;;5053797;28;20032;-80
2020/12/09 02:43:01;;;;;;;5.32;1.33;;;26.50;73.40;;;;;;5068709;28;20051;-80
2020/12/09 02:45:28;;;;;;;6.35;1.02;;;26.50;73.30;;;;;;5074257;28;20042;-79
2020/12/09 02:47:55;;;;;;;6.60;1.08;;;26.30;76.30;;;;;;5055441;28;20028;-79
2020/12/09 02:50:23;;;;;;;7.10;1.33;;;26.70;79.40;;;;;;5079499;22;20049;-79
2020/12/09 02:52:50;;;;;;;9.82;1.23;;;27.10;73.20;;;;;;5049677;28;20052;-78
2020/12/09 02:55:18;;;;;;;8.13;0.95;;;26.80;74.90;;;;;;5051301;28;20025;-79
2020/12/09 02:57:47;;;;;;;7.68;1.60;;;27.00;73.00;;;;;;5051092;28;20028;-80
2020/12/09 03:00:15;;;;;;;7.18;1.10;;;27.00;75.90;;;;;;5048179;28;20397;-79
2020/12/09 03:02:43;;;;;;;6.70;1.50;;;26.90;74.30;;;;;;5032034;28;20100;-79
2020/12/09 03:05:10;;;;;;;7.40;1.30;;;27.10;74.40;;;;;;5049958;28;20032;-80
2020/12/09 03:07:37;;;;;;;4.53;1.00;;;26.50;73.60;;;;;;5052123;28;20116;-80
2020/12/09 03:10:05;;;;;;;9.85;0.80;;;26.60;74.00;;;;;;5052145;28;20040;-80
2020/12/09 03:12:32;;;;;;;8.20;1.15;;;26.70;73.50;;;;;;5052428;28;20021;-79
2020/12/09 03:15:00;;;;;;;9.23;1.27;;;27.00;74.50;;;;;;5051001;28;20036;-80
2020/12/09 03:17:27;;;;;;;5.43;1.55;;;26.30;74.40;;;;;;5048366;28;20032;-80
2020/12/09 03:19:55;;;;;;;7.97;1.15;;;26.00;77.80;;;;;;5049696;28;20048;-80
2020/12/09 03:22:22;;;;;;;8.55;1.60;;;26.30;74.80;;;;;;5046590;28;20074;-80
2020/12/09 03:24:50;;;;;;;8.57;1.73;;;26.30;74.40;;;;;;5034865;28;20029;-80
2020/12/09 03:27:17;;;;;;;6.18;1.10;;;26.30;78.30;;;;;;5032262;28;20061;-80
2020/12/09 03:29:44;;;;;;;4.75;0.65;;;26.00;73.50;;;;;;5031818;28;20041;-80
2020/12/09 03:32:11;;;;;;;7.63;1.40;;;25.90;75.00;;;;;;5032425;28;20026;-80
2020/12/09 03:34:39;;;;;;;10.20;1.25;;;25.80;77.70;;;;;;5032861;28;20454;-80
2020/12/09 03:37:06;;;;;;;7.05;1.17;;;26.10;74.30;;;;;;5032136;28;20013;-80
2020/12/09 03:39:34;;;;;;;5.65;0.88;;;26.20;74.10;;;;;;5044947;28;20036;-80
2020/12/09 03:42:01;;;;;;;4.80;1.35;;;26.00;75.20;;;;;;5051938;28;20027;-80
2020/12/09 03:44:28;;;;;;;7.65;1.05;;;26.00;74.50;;;;;;5036977;28;20032;-80
2020/12/09 03:46:56;;;;;;;5.07;1.00;;;26.00;76.70;;;;;;5031727;28;20108;-80
2020/12/09 03:49:26;;;;;;;4.88;1.00;;;25.90;74.40;;;;;;5031448;28;20116;-79
2020/12/09 03:51:54;;;;;;;7.45;0.77;;;25.80;74.20;;;;;;5073417;22;21063;-80
2020/12/09 03:54:21;;;;;;;9.50;1.73;;;25.60;74.70;;;;;;5042184;22;20051;-76
2020/12/09 03:56:48;;;;;;;6.80;0.80;;;25.60;78.20;;;;;;5051139;28;20049;-77
2020/12/09 03:59:16;;;;;;;5.47;0.80;;;25.70;75.00;;;;;;5070397;22;20557;-78
2020/12/09 04:01:43;;;;;;;7.30;1.13;;;25.60;74.20;;;;;;5083743;28;20028;-78
2020/12/09 04:04:10;;;;;;;6.10;1.35;;;25.40;76.10;;;;;;5072437;28;20023;-78
2020/12/09 04:06:38;;;;;;;5.68;1.13;;;25.70;75.70;;;;;;5053049;28;20029;-78
2020/12/09 04:09:05;;;;;;;9.25;1.20;;;25.40;76.40;;;;;;5064910;22;20053;-78
2020/12/09 04:11:33;;;;;;;5.45;0.93;;;25.20;75.10;;;;;;5050954;28;20040;-78
2020/12/09 04:14:00;;;;;;;8.10;1.25;;;25.20;76.50;;;;;;5039519;28;20043;-78
2020/12/09 04:16:27;;;;;;;5.13;1.38;;;25.50;75.90;;;;;;5079349;28;20103;-78
2020/12/09 04:18:54;;;;;;;4.38;0.90;;;25.10;75.90;;;;;;5068824;28;20222;-76
2020/12/09 04:21:22;;;;;;;10.32;1.58;;;25.00;77.30;;;;;;5071382;28;20112;-77
2020/12/09 04:23:49;;;;;;;5.50;1.15;;;24.90;76.00;;;;;;5068114;22;20102;-77
2020/12/09 04:26:16;;;;;;;8.50;1.05;;;24.70;77.40;;;;;;5071647;28;20104;-76
2020/12/09 04:28:44;;;;;;;4.38;0.73;;;24.50;77.50;;;;;;5068853;28;20082;-76
2020/12/09 04:31:11;;;;;;;4.32;0.95;;;24.20;79.70;;;;;;5068432;28;20039;-75
2020/12/09 04:33:47;;;;;;;8.15;1.42;;;24.10;78.70;;;;;;5068695;28;20020;-75
2020/12/09 04:36:14;;;;;;;6.43;1.02;;;24.10;79.80;;;;;;5053286;28;20384;-76
2020/12/09 04:38:42;;;;;;;6.22;1.02;;;24.20;80.30;;;;;;5063011;28;20017;-76
2020/12/09 04:41:09;;;;;;;7.28;0.98;;;24.00;81.00;;;;;;5069610;28;20519;-76
2020/12/09 04:43:36;;;;;;;5.80;1.38;;;23.70;82.50;;;;;;5068928;28;20060;-76
2020/12/09 04:46:04;;;;;;;8.13;1.35;;;23.90;81.90;;;;;;5071180;28;20020;-77
2020/12/09 04:48:41;;;;;;;6.55;1.05;;;23.90;79.80;;;;;;5068857;28;20017;-76
2020/12/09 04:51:29;;;;;;;8.45;1.15;;;23.90;82.10;;;;;;5070406;28;20036;-76
2020/12/09 04:54:00;;;;;;;5.90;1.42;;;23.50;82.90;;;;;;5059455;28;20608;-76
2020/12/09 04:56:39;;;;;;;6.47;1.10;;;23.50;84.30;;;;;;5087116;22;20517;-76
2020/12/09 04:59:17;;;;;;;7.75;1.30;;;23.40;84.30;;;;;;5069364;28;20028;-76
2020/12/09 05:02:08;;;;;;;11.75;2.45;;;23.10;86.50;;;;;;5070497;28;20053;-76
2020/12/09 05:04:37;;;;;;;8.98;1.45;;;23.20;87.20;;;;;;5067066;28;20078;-76
2020/12/09 05:07:09;;;;;;;7.03;1.20;;;23.20;87.90;;;;;;5072625;28;20017;-76
2020/12/09 05:09:59;;;;;;;9.18;1.30;;;23.20;88.00;;;;;;5077283;28;20032;-76
2020/12/09 05:12:29;;;;;;;10.35;1.23;;;23.20;88.00;;;;;;5081104;28;21221;-75
2020/12/09 05:14:57;;;;;;;6.15;1.40;;;23.10;86.70;;;;;;5075019;28;20032;-77
2020/12/09 05:17:28;;;;;;;6.32;1.52;;;23.10;87.00;;;;;;5078657;28;20081;-77
2020/12/09 05:19:56;;;;;;;6.78;2.00;;;23.10;87.60;;;;;;5061411;28;20039;-75
2020/12/09 05:22:23;;;;;;;9.18;1.38;;;23.00;88.10;;;;;;5074681;28;20094;-78
2020/12/09 05:24:51;;;;;;;6.63;1.13;;;23.00;88.20;;;;;;5072258;28;20035;-77
2020/12/09 05:27:18;;;;;;;6.45;1.27;;;23.00;87.30;;;;;;5089096;28;20028;-78
2020/12/09 05:29:50;;;;;;;5.45;1.40;;;23.00;87.10;;;;;;5090241;28;20067;-79
2020/12/09 05:32:18;;;;;;;5.28;1.25;;;22.80;87.80;;;;;;5094714;28;20059;-80
2020/12/09 05:34:45;;;;;;;10.07;1.52;;;22.80;88.10;;;;;;5072168;28;20020;-79
2020/12/09 05:37:13;;;;;;;5.63;1.10;;;23.00;87.60;;;;;;5075488;28;20519;-80
2020/12/09 05:39:58;;;;;;;7.95;1.55;;;23.00;88.80;;;;;;5087314;28;20036;-79
2020/12/09 05:42:26;;;;;;;6.70;1.10;;;23.00;87.50;;;;;;5053693;28;20028;-80
2020/12/09 05:44:53;;;;;;;6.45;1.05;;;23.10;87.70;;;;;;5088057;28;20073;-81
2020/12/09 05:47:21;;;;;;;4.75;1.75;;;23.20;88.60;;;;;;5084410;28;20050;-82
2020/12/09 05:49:49;;;;;;;6.82;1.65;;;23.20;86.00;;;;;;5069963;28;20439;-82
2020/12/09 05:52:20;;;;;;;4.72;0.80;;;23.10;84.70;;;;;;5075635;28;20032;-80
2020/12/09 05:54:50;;;;;;;7.70;1.50;;;23.00;85.10;;;;;;5088065;28;20036;-80
2020/12/09 05:57:30;;;;;;;5.82;0.90;;;23.20;86.50;;;;;;5097024;22;20061;-82
2020/12/09 05:59:57;;;;;;;8.20;1.25;;;23.30;86.70;;;;;;5030517;23;20068;-79
2020/12/09 06:02:29;;;;;;;9.85;1.63;;;22.90;85.50;;;;;;5053861;28;20021;-81
2020/12/09 06:05:01;;;;;;;9.30;1.35;;;22.70;87.20;;;;;;5044258;23;20141;-79
2020/12/09 06:07:30;;;;;;;5.47;1.17;;;22.80;87.50;;;;;;5039285;28;20408;-81
2020/12/09 06:10:19;;;;;;;8.05;1.35;;;22.90;86.00;;;;;;5052573;28;20052;-79
2020/12/09 06:13:02;;;;;;;6.25;1.30;;;22.60;87.40;;;;;;5074175;23;20016;-80
2020/12/09 06:15:34;;;;;;;4.70;0.88;;;22.70;88.50;;;;;;4997988;28;20088;-81
2020/12/09 06:18:16;;;;;;;5.75;1.00;;;22.70;87.70;;;;;;5011502;28;20401;-79
2020/12/09 06:20:43;;;;;;;5.22;0.88;;;22.60;87.00;;;;;;5013722;28;20022;-78
2020/12/09 06:23:15;;;;;;;6.40;1.17;;;22.50;87.10;;;;;;5008849;28;20023;-80
2020/12/09 06:25:51;;;;;;;4.63;1.23;;;22.60;87.30;;;;;;4999383;28;20036;-81
2020/12/09 06:28:21;;;;;;;5.85;1.20;;;22.50;89.10;;;;;;5008300;28;20022;-85
2020/12/09 06:30:50;;;;;;;8.35;1.15;;;22.50;89.30;;;;;;5024013;23;20045;-80
2020/12/09 06:33:32;;;;;;;11.15;1.20;;;22.50;88.60;;;;;;5066325;28;20020;-83
2020/12/09 06:36:29;;;;;;;11.15;2.28;;;22.50;89.60;;;;;;5037712;28;20117;-81
2020/12/09 06:39:13;;;;;;;8.20;2.17;;;22.40;88.90;;;;;;5020909;28;20037;-80
2020/12/09 06:41:47;;;;;;;6.60;1.63;;;22.50;89.90;;;;;;5047804;28;20108;-81
2020/12/09 06:44:16;;;;;;;8.63;1.40;;;22.60;90.20;;;;;;5046131;28;20371;-83
2020/12/09 06:46:47;;;;;;;6.18;1.15;;;22.80;89.10;;;;;;5039237;28;20017;-84
2020/12/09 06:49:38;;;;;;;7.72;1.65;;;22.70;88.70;;;;;;5018331;28;20025;-83
2020/12/09 06:52:11;;;;;;;10.43;1.60;;;22.70;89.90;;;;;;5016628;28;20033;-82
2020/12/09 06:54:49;;;;;;;9.95;2.00;;;22.70;90.10;;;;;;5021974;28;20087;-84
2020/12/09 06:57:45;;;;;;;6.97;1.23;;;22.60;89.20;;;;;;5044045;28;20025;-84
2020/12/09 07:00:18;;;;;;;7.93;1.83;;;22.70;89.30;;;;;;5009913;28;20387;-86
2020/12/09 07:02:55;;;;;;;7.70;1.58;;;22.60;89.70;;;;;;5059953;22;20041;-89
2020/12/09 07:05:30;;;;;;;9.02;1.75;;;22.60;90.30;;;;;;5082611;28;20279;-90
2020/12/09 07:08:05;;;;;;;6.20;1.38;;;22.60;89.10;;;;;;5088193;28;20028;-88
2020/12/09 07:10:35;;;;;;;7.65;1.60;;;22.70;90.00;;;;;;5081896;28;20132;-82
2020/12/09 07:13:04;;;;;;;7.45;1.30;;;22.40;90.00;;;;;;5083978;28;20046;-89
2020/12/09 07:15:31;;;;;;;5.97;1.10;;;22.70;89.90;;;;;;5077261;28;20024;-84
2020/12/09 07:17:58;;;;;;;5.90;1.58;;;22.50;90.50;;;;;;5055986;28;20032;-86
2020/12/09 07:20:26;;;;;;;8.52;1.27;;;22.40;90.60;;;;;;5075452;28;20024;-82
2020/12/09 07:22:53;;;;;;;6.00;1.33;;;22.50;90.50;;;;;;5070786;28;20016;-82
2020/12/09 07:25:21;;;;;;;10.35;2.40;;;22.40;90.60;;;;;;5054327;28;20024;-83
2020/12/09 07:27:49;;;;;;;8.40;2.22;;;22.30;91.30;;;;;;5070057;28;20025;-84
2020/12/09 07:30:19;;;;;;;10.70;1.52;;;22.10;91.70;;;;;;5054074;28;20036;-90
2020/12/09 07:32:48;;;;;;;8.75;1.77;;;22.10;91.90;;;;;;5052923;28;20028;-87
2020/12/09 07:35:17;;;;;;;9.30;1.30;;;22.00;92.20;;;;;;5052776;28;20029;-79
2020/12/09 07:37:48;;;;;;;5.00;1.08;;;21.90;92.60;;;;;;5054634;28;20427;-84
2020/12/09 07:40:26;;;;;;;7.38;1.80;;;21.80;93.00;;;;;;5063966;28;20086;-83
2020/12/09 07:43:00;;;;;;;8.25;2.08;;;21.70;92.80;;;;;;5073282;28;20027;-83
2020/12/09 07:45:27;;;;;;;5.38;0.90;;;21.70;93.20;;;;;;5053880;28;20033;-83
2020/12/09 07:48:21;;;;;;;7.88;1.60;;;21.80;93.00;;;;;;5071788;28;20112;-83
2020/12/09 07:50:52;;;;;;;6.55;1.23;;;21.50;93.20;;;;;;5068862;28;20049;-83
2020/12/09 07:53:20;;;;;;;9.32;1.92;;;21.60;93.50;;;;;;5071792;28;20052;-83
2020/12/09 07:55:48;;;;;;;5.85;1.38;;;21.50;93.80;;;;;;5062306;28;20028;-83
2020/12/09 07:58:17;;;;;;;6.18;1.98;;;21.40;94.20;;;;;;5073583;28;20024;-83
2020/12/09 08:00:47;;;;;;;7.68;1.10;;;21.30;94.30;;;;;;5087269;28;20116;-83
2020/12/09 08:03:28;;;;;;;12.43;2.42;;;21.30;94.60;;;;;;5052500;28;20047;-82
2020/12/09 08:05:57;;;;;;;7.70;1.90;;;21.40;94.80;;;;;;5083227;22;20057;-80
2020/12/09 08:08:26;;;;;;;7.50;1.20;;;21.30;94.80;;;;;;5068365;22;20061;-81
2020/12/09 08:10:54;;;;;;;12.27;2.90;;;21.30;95.40;;;;;;5051686;28;20099;-81
2020/12/09 08:13:25;;;;;;;11.95;3.10;;;21.20;95.20;;;;;;5059077;22;20509;-81
2020/12/09 08:16:08;;;;;;;8.80;2.20;;;21.10;95.40;;;;;;5049584;28;20086;-81
2020/12/09 08:18:36;;;;;;;8.95;1.80;;;21.20;95.60;;;;;;5051382;28;20017;-80
2020/12/09 08:21:04;;;;;;;8.07;1.88;;;21.00;96.00;;;;;;5061917;22;20048;-81
2020/12/09 08:23:50;;;;;;;7.80;1.60;;;20.90;95.70;;;;;;5071526;28;20024;-80
2020/12/09 08:26:33;;;;;;;8.65;2.00;;;20.90;95.90;;;;;;5071387;28;20020;-80
2020/12/09 08:29:00;;;;;;;8.30;2.55;;;20.80;96.10;;;;;;5050940;28;20029;-80
2020/12/09 08:31:28;;;;;;;6.47;1.92;;;20.90;96.30;;;;;;5033604;28;20060;-81
2020/12/09 08:33:55;;;;;;;8.48;1.63;;;20.90;96.50;;;;;;5033959;28;20112;-81
2020/12/09 08:36:23;;;;;;;13.90;2.10;;;20.90;97.00;;;;;;5034857;28;20108;-80
2020/12/09 08:38:57;;;;;;;5.68;1.23;;;20.90;97.10;;;;;;5073809;23;20049;-80
2020/12/09 08:41:25;;;;;;;;;;;20.90;96.90;;;;;;5072786;28;20025;-81
2020/12/09 08:43:57;;;;;;;8.50;1.52;;;20.90;97.20;;;;;;5074076;28;19957;-81
2020/12/09 08:46:29;;;;;;;11.32;2.20;;;20.80;97.40;;;;;;5074951;28;20078;-80
2020/12/09 08:48:58;;;;;;;9.30;2.15;;;20.80;97.60;;;;;;5077540;28;20016;-80
2020/12/09 08:51:27;;;;;;;8.45;1.70;;;20.80;97.60;;;;;;5073025;28;20035;-81
2020/12/09 08:53:55;;;;;;;10.07;1.90;;;20.80;97.40;;;;;;5064470;28;20082;-81
2020/12/09 08:56:30;;;;;;;8.10;1.75;;;20.80;97.60;;;;;;5067460;28;20031;-80
2020/12/09 08:58:59;;;;;;;12.30;1.92;;;20.80;97.80;;;;;;5074772;28;20024;-80
2020/12/09 09:01:30;;;;;;;7.72;1.73;;;20.80;97.60;;;;;;5074129;28;20031;-80
2020/12/09 09:03:59;;;;;;;8.02;1.52;;;20.70;97.70;;;;;;5073670;28;20024;-80
2020/12/09 09:06:26;;;;;;;5.38;1.17;;;20.70;97.90;;;;;;5074156;28;20021;-80
2020/12/09 09:08:53;;;;;;;9.82;1.75;;;20.70;97.80;;;;;;5074193;28;20071;-80
2020/12/09 09:11:25;;;;;;;6.05;1.27;;;20.60;98.00;;;;;;5080343;22;20056;-80
2020/12/09 09:13:53;;;;;;;7.18;1.83;;;20.50;97.90;;;;;;5074310;28;20111;-80
2020/12/09 09:16:21;;;;;;;9.30;2.30;;;20.50;98.10;;;;;;5074372;28;20485;-80
2020/12/09 09:18:48;;;;;;;13.43;1.92;;;20.50;98.20;;;;;;5074315;28;20025;-80
2020/12/09 09:21:16;;;;;;;8.57;1.85;;;20.50;97.60;;;;;;5058755;28;20025;-80
2020/12/09 09:23:43;;;;;;;14.52;2.20;;;20.60;97.80;;;;;;5073858;28;20031;-80
2020/12/09 09:26:11;;;;;;;12.57;1.90;;;20.50;97.60;;;;;;5073991;28;20017;-79
2020/12/09 09:28:39;;;;;;;10.13;2.17;;;20.50;97.80;;;;;;5073316;28;20024;-79
2020/12/09 09:31:07;;;;;;;7.38;1.17;;;20.40;97.80;;;;;;5077914;28;20036;-80
2020/12/09 09:33:35;;;;;;;7.35;1.92;;;20.50;97.90;;;;;;5067497;28;20029;-80
2020/12/09 09:36:03;;;;;;;11.52;1.80;;;20.40;98.10;;;;;;5074409;28;20376;-80
2020/12/09 09:38:30;;;;;;;6.38;1.23;;;20.40;98.20;;;;;;5074038;28;20478;-80
2020/12/09 09:40:57;;;;;;;9.60;1.35;;;20.50;97.70;;;;;;5073572;28;20080;-80
2020/12/09 09:43:25;;;;;;;5.95;1.20;;;20.40;97.90;;;;;;5073276;28;20024;-81
2020/12/09 09:45:52;;;;;;;9.20;1.27;;;20.40;98.00;;;;;;5055868;28;20043;-79
2020/12/09 09:48:19;;;;;;;8.02;1.20;;;20.40;97.90;;;;;;5073442;28;20024;-80
2020/12/09 09:50:46;;;;;;;9.07;1.73;;;20.40;98.00;;;;;;5079104;28;20119;-80
2020/12/09 09:53:14;;;;;;;11.07;1.58;;;20.50;98.10;;;;;;5071807;28;20029;-78
2020/12/09 09:55:41;;;;;;;10.63;2.42;;;20.40;98.50;;;;;;5073577;28;20043;-80
2020/12/09 09:58:08;;;;;;;15.30;2.97;;;20.40;98.70;;;;;;5073553;28;20048;-80
2020/12/09 10:00:36;;;;;;;5.60;1.63;;;20.40;98.70;;;;;;5053003;28;20499;-82
2020/12/09 10:03:03;;;;;;;7.38;2.05;;;20.40;98.70;;;;;;5059335;28;20032;-82
2020/12/09 10:05:31;;;;;;;9.02;1.75;;;20.30;98.90;;;;;;5071819;28;20048;-82
2020/12/09 10:07:58;;;;;;;9.20;1.65;;;20.40;98.90;;;;;;5055871;28;20041;-83
2020/12/09 10:10:25;;;;;;;10.35;1.58;;;20.40;99.00;;;;;;5082195;28;20063;-83
2020/12/09 10:12:52;;;;;;;10.38;1.63;;;20.40;99.10;;;;;;5061812;22;20053;-84
2020/12/09 10:15:20;;;;;;;8.27;1.60;;;20.30;99.40;;;;;;5040043;23;20053;-83
2020/12/09 10:17:47;;;;;;;5.65;1.20;;;20.30;99.40;;;;;;5063613;28;20013;-82
2020/12/09 10:20:14;;;;;;;7.32;1.52;;;20.20;99.60;;;;;;5035555;23;20057;-82
2020/12/09 10:22:42;;;;;;;7.65;1.23;;;20.20;99.70;;;;;;5030228;28;20050;-83
2020/12/09 10:25:09;;;;;;;9.05;1.60;;;20.30;99.90;;;;;;5018038;28;20028;-82
2020/12/09 10:27:36;;;;;;;8.25;1.48;;;20.20;99.90;;;;;;5031201;23;20018;-82
2020/12/09 10:30:05;;;;;;;8.15;2.25;;;20.20;99.90;;;;;;5064600;28;20588;-83
2020/12/09 10:32:33;;;;;;;9.25;1.55;;;20.30;99.70;;;;;;5058068;28;20033;-84
2020/12/09 10:35:00;;;;;;;9.27;1.35;;;20.30;99.70;;;;;;5073170;28;20024;-83
2020/12/09 10:37:27;;;;;;;10.60;2.20;;;20.30;99.70;;;;;;5040714;28;20021;-83
2020/12/09 10:39:55;;;;;;;11.90;1.98;;;20.30;99.70;;;;;;5053328;28;20482;-83
2020/12/09 10:42:23;;;;;;;8.80;1.33;;;20.30;99.80;;;;;;5035001;28;20021;-83
2020/12/09 10:44:51;;;;;;;7.25;2.00;;;20.30;99.80;;;;;;5069139;22;20055;-83
2020/12/09 10:47:19;;;;;;;14.13;1.50;;;20.30;99.90;;;;;;5052966;28;20029;-83
2020/12/09 10:49:46;;;;;;;9.50;1.85;;;20.20;99.90;;;;;;5049399;28;20045;-82
2020/12/09 10:52:14;;;;;;;11.05;1.55;;;20.20;99.90;;;;;;5045183;28;20482;-83
2020/12/09 10:54:42;;;;;;;10.60;1.42;;;20.20;99.90;;;;;;5050465;28;20029;-83
2020/12/09 10:57:09;;;;;;;8.95;1.98;;;20.20;99.90;;;;;;5059891;28;20025;-82
2020/12/09 10:59:37;;;;;;;11.15;2.25;;;20.10;99.90;;;;;;5058079;28;20079;-80
2020/12/09 11:02:04;;;;;;;8.90;1.75;;;20.10;99.90;;;;;;5059882;28;20422;-82
2020/12/09 11:04:31;;;;;;;7.13;1.33;;;20.00;99.90;;;;;;5035726;28;20016;-86
2020/12/09 11:06:59;;;;;;;12.45;2.00;;;20.10;99.90;;;;;;5059860;28;20139;-86
2020/12/09 11:09:26;;;;;;;8.63;2.35;;;20.00;99.90;;;;;;5057053;28;20040;-85
2020/12/09 11:11:54;;;;;;;10.20;1.73;;;20.00;99.90;;;;;;5047328;28;20103;-86
2020/12/09 11:14:22;;;;;;;9.98;1.77;;;20.00;99.90;;;;;;5048268;28;20033;-85
2020/12/09 11:16:49;;;;;;;7.95;2.33;;;20.00;99.90;;;;;;5054667;28;20037;-86
2020/12/09 11:19:16;;;;;;;9.45;1.77;;;20.10;99.90;;;;;;5064388;22;20048;-84
2020/12/09 11:21:44;;;;;;;10.50;1.85;;;20.00;99.90;;;;;;5049171;28;20025;-84
2020/12/09 11:24:12;;;;;;;10.07;1.63;;;19.90;99.90;;;;;;5047536;28;20125;-85
2020/12/09 11:26:39;;;;;;;10.07;1.50;;;20.00;99.90;;;;;;5047510;28;20025;-85
2020/12/09 11:29:06;;;;;;;11.77;3.05;;;20.00;99.90;;;;;;5054001;28;20033;-84
2020/12/09 11:31:38;;;;;;;8.57;1.83;;;20.00;99.90;;;;;;5055548;28;20025;-84
2020/12/09 11:34:06;;;;;;;9.60;2.22;;;20.00;99.90;;;;;;5035900;28;20102;-85
2020/12/09 11:36:33;;;;;;;11.45;1.80;;;20.00;99.90;;;;;;5068665;28;20035;-85
2020/12/09 11:39:01;;;;;;;8.05;1.77;;;19.90;99.90;;;;;;5049016;28;20095;-85
2020/12/09 11:41:30;;;;;;;10.05;1.90;;;19.90;99.90;;;;;;5057160;28;20456;-85
2020/12/09 11:43:58;;;;;;;10.18;2.03;;;19.80;99.90;;;;;;5059245;28;20056;-85
2020/12/09 11:46:29;;;;;;;7.80;1.45;;;19.90;99.90;;;;;;5061979;28;20028;-85
2020/12/09 11:48:56;;;;;;;7.47;1.63;;;19.80;99.90;;;;;;5067284;28;20109;-85
2020/12/09 11:51:26;;;;;;;10.00;1.85;;;19.80;99.90;;;;;;5071511;28;20499;-85
2020/12/09 11:53:54;;;;;;;9.57;2.15;;;19.80;99.90;;;;;;5048539;28;20039;-85
2020/12/09 11:56:26;;;;;;;8.90;1.70;;;19.80;99.90;;;;;;5063647;28;20024;-85
2020/12/09 11:58:54;;;;;;;11.30;2.17;;;19.80;99.90;;;;;;5037076;28;20708;-85
2020/12/09 12:01:22;;;;;;;8.93;1.38;;;19.70;99.90;;;;;;5050342;28;20427;-85
2020/12/09 12:03:49;;;;;;;11.80;2.78;;;19.70;99.90;;;;;;5062677;28;20114;-85
2020/12/09 12:06:26;;;;;;;7.82;1.50;;;19.80;99.90;;;;;;5051895;28;20116;-85
2020/12/09 12:08:54;;;;;;;14.65;2.35;;;19.70;99.90;;;;;;5054323;28;20025;-85
2020/12/09 12:11:24;;;;;;;8.95;1.38;;;19.70;99.90;;;;;;5067352;28;20032;-85
2020/12/09 12:13:52;;;;;;;7.38;1.55;;;19.70;99.90;;;;;;5054940;28;20021;-85
2020/12/09 12:16:24;;;;;;;7.22;1.52;;;19.70;99.90;;;;;;5061420;28;20063;-85
2020/12/09 12:18:52;;;;;;;11.23;1.63;;;19.70;99.90;;;;;;5064279;22;20074;-85
2020/12/09 12:21:23;;;;;;;9.27;1.50;;;19.60;99.90;;;;;;5059079;22;20072;-85
2020/12/09 12:23:50;;;;;;;14.48;2.83;;;19.60;99.90;;;;;;5074994;22;20056;-85
2020/12/09 12:26:24;;;;;;;6.95;1.30;;;19.60;99.90;;;;;;5076847;22;20453;-85
2020/12/09 12:28:52;;;;;;;13.00;1.73;;;19.50;99.90;;;;;;5067216;28;20393;-85
2020/12/09 12:31:21;;;;;;;6.90;2.22;;;19.50;99.90;;;;;;5071305;28;20112;-85
2020/12/09 12:33:48;;;;;;;8.70;2.60;;;19.50;99.90;;;;;;5073571;28;20021;-85
2020/12/09 12:36:16;;;;;;;7.72;1.52;;;19.50;99.90;;;;;;5103728;22;20052;-85
2020/12/09 12:38:43;;;;;;;9.50;2.05;;;19.50;99.90;;;;;;5084127;28;20527;-85
2020/12/09 12:41:10;;;;;;;8.98;1.40;;;19.50;99.90;;;;;;5083161;28;20492;-85
2020/12/09 12:43:39;;;;;;;7.93;1.40;;;19.40;99.90;;;;;;5076502;28;20024;-85
2020/12/09 12:46:09;;;;;;;8.80;1.75;;;19.40;99.90;;;;;;5067081;28;20396;-85
2020/12/09 12:48:37;;;;;;;9.38;1.60;;;19.40;99.90;;;;;;5047437;28;20485;-85
2020/12/09 12:51:04;;;;;;;9.68;2.08;;;19.30;99.90;;;;;;5071418;28;20029;-85
2020/12/09 12:53:31;;;;;;;10.05;1.48;;;19.30;99.90;;;;;;5073689;23;20051;-85
2020/12/09 12:55:59;;;;;;;8.93;1.80;;;19.20;99.90;;;;;;5079505;28;20028;-85
2020/12/09 12:58:28;;;;;;;5.10;1.77;;;19.10;99.90;;;;;;5078669;28;20107;-85